createdAt,value
2022-07-31T00:00:19.667Z,2.05
2022-07-31T00:02:48.418Z,2.53
2022-07-31T00:05:16.481Z,2.60
2022-07-31T00:07:45.064Z,2.33
2022-07-31T00:10:12.539Z,2.35
2022-07-31T00:12:40.482Z,1.95
2022-07-31T00:15:10.290Z,2.42
2022-07-31T00:17:42.025Z,2.72
2022-07-31T00:20:13.592Z,2.45
2022-07-31T00:22:49.373Z,2.63
2022-07-31T00:25:17.731Z,2.20
2022-07-31T00:27:45.176Z,1.80
2022-07-31T00:30:13.849Z,2.40
2022-07-31T00:32:42.466Z,2.58
2022-07-31T00:35:14.968Z,2.00
2022-07-31T00:37:42.974Z,2.03
2022-07-31T00:40:13.284Z,3.47
2022-07-31T00:42:40.840Z,2.45
2022-07-31T00:45:09.357Z,2.28
2022-07-31T00:47:37.600Z,2.78
2022-07-31T00:50:07.604Z,2.42
2022-07-31T00:52:34.260Z,2.13
2022-07-31T00:55:00.775Z,2.30
2022-07-31T00:57:27.433Z,2.05
2022-07-31T00:59:54.307Z,1.85
2022-07-31T01:02:20.756Z,2.13
2022-07-31T01:04:47.459Z,1.88
2022-07-31T01:07:14.521Z,2.22
2022-07-31T01:09:42.555Z,3.05
2022-07-31T01:12:21.331Z,2.35
2022-07-31T01:14:51.041Z,2.38
2022-07-31T01:17:18.043Z,2.50
2022-07-31T01:19:47.085Z,2.05
2022-07-31T01:22:33.225Z,2.40
2022-07-31T01:25:39.706Z,2.45
2022-07-31T01:28:21.506Z,2.80
2022-07-31T01:31:10.744Z,3.00
2022-07-31T01:34:20.351Z,2.97
2022-07-31T01:37:03.403Z,2.45
2022-07-31T01:39:34.159Z,3.47
2022-07-31T01:42:04.375Z,2.33
2022-07-31T01:44:35.097Z,1.55
2022-07-31T01:47:03.635Z,1.88
2022-07-31T01:49:31.600Z,2.33
2022-07-31T01:52:04.422Z,2.78
2022-07-31T01:54:32.685Z,2.45
2022-07-31T01:56:59.849Z,3.05
2022-07-31T01:59:27.950Z,1.88
2022-07-31T02:01:59.298Z,2.60
2022-07-31T02:04:27.765Z,1.90
2022-07-31T02:06:55.789Z,3.20
2022-07-31T02:09:24.040Z,2.92
2022-07-31T02:11:54.479Z,2.35
2022-07-31T02:14:36.006Z,3.10
2022-07-31T02:17:02.983Z,1.98
2022-07-31T02:19:31.128Z,2.13
2022-07-31T02:21:59.373Z,1.40
2022-07-31T02:24:26.365Z,2.28
2022-07-31T02:26:53.993Z,2.58
2022-07-31T02:29:21.316Z,2.53
2022-07-31T02:32:03.615Z,2.75
2022-07-31T02:34:31.002Z,2.40
2022-07-31T02:36:58.749Z,2.85
2022-07-31T02:39:30.300Z,1.80
2022-07-31T02:41:59.373Z,3.53
2022-07-31T02:44:27.043Z,2.63
2022-07-31T02:46:54.487Z,2.78
2022-07-31T02:49:21.164Z,2.35
2022-07-31T02:51:47.743Z,1.88
2022-07-31T02:54:16.106Z,2.83
2022-07-31T02:56:43.145Z,2.15
2022-07-31T02:59:10.445Z,2.42
2022-07-31T03:01:37.366Z,3.63
2022-07-31T03:04:04.187Z,2.85
2022-07-31T03:06:30.847Z,2.30
2022-07-31T03:08:57.297Z,2.05
2022-07-31T03:11:23.794Z,1.95
2022-07-31T03:13:51.923Z,2.50
2022-07-31T03:16:18.733Z,2.47
2022-07-31T03:18:45.738Z,2.10
2022-07-31T03:21:12.557Z,2.03
2022-07-31T03:23:39.165Z,2.65
2022-07-31T03:26:06.022Z,2.38
2022-07-31T03:28:34.691Z,2.28
2022-07-31T03:31:01.488Z,3.05
2022-07-31T03:33:28.150Z,3.33
2022-07-31T03:35:54.651Z,2.83
2022-07-31T03:38:41.510Z,1.77
2022-07-31T03:41:07.597Z,2.30
2022-07-31T03:43:43.998Z,1.92
2022-07-31T03:46:16.270Z,2.03
2022-07-31T03:48:42.722Z,2.20
2022-07-31T03:51:09.498Z,2.45
2022-07-31T03:53:36.375Z,1.88
2022-07-31T03:56:03.557Z,1.85
2022-07-31T03:58:30.050Z,1.98
2022-07-31T04:00:56.956Z,2.53
2022-07-31T04:03:23.404Z,2.50
2022-07-31T04:05:49.931Z,2.92
2022-07-31T04:08:16.480Z,2.08
2022-07-31T04:10:42.955Z,1.98
2022-07-31T04:13:09.372Z,2.65
2022-07-31T04:15:36.020Z,1.70
2022-07-31T04:18:02.837Z,2.13
2022-07-31T04:20:29.503Z,2.13
2022-07-31T04:22:55.981Z,1.60
2022-07-31T04:25:22.573Z,2.58
2022-07-31T04:27:49.114Z,2.65
2022-07-31T04:30:15.939Z,2.00
2022-07-31T04:32:42.992Z,2.60
2022-07-31T04:35:09.695Z,1.95
2022-07-31T04:37:36.348Z,2.08
2022-07-31T04:40:03.113Z,2.15
2022-07-31T04:42:32.896Z,2.25
2022-07-31T04:44:59.468Z,3.40
2022-07-31T04:47:25.879Z,2.10
2022-07-31T04:49:52.796Z,2.22
2022-07-31T04:52:19.303Z,3.08
2022-07-31T04:54:45.777Z,2.67
2022-07-31T04:57:12.253Z,2.22
2022-07-31T05:00:00.625Z,2.00
2022-07-31T05:02:25.757Z,2.95
2022-07-31T05:04:56.842Z,2.92
2022-07-31T05:07:24.535Z,2.65
2022-07-31T05:09:54.272Z,2.60
2022-07-31T05:12:20.704Z,2.40
2022-07-31T05:14:47.208Z,2.97
2022-07-31T05:17:13.750Z,2.08
2022-07-31T05:19:40.206Z,1.88
2022-07-31T05:22:07.218Z,2.42
2022-07-31T05:24:34.370Z,2.53
2022-07-31T05:27:02.053Z,2.38
2022-07-31T05:29:28.782Z,2.33
2022-07-31T05:31:59.773Z,2.33
2022-07-31T05:34:30.135Z,2.00
2022-07-31T05:37:01.076Z,1.60
2022-07-31T05:39:28.656Z,2.45
2022-07-31T05:41:55.133Z,1.73
2022-07-31T05:44:21.816Z,1.90
2022-07-31T05:46:48.596Z,2.95
2022-07-31T05:49:15.127Z,1.85
2022-07-31T05:51:45.498Z,1.70
2022-07-31T05:54:12.040Z,1.55
2022-07-31T05:56:38.584Z,1.70
2022-07-31T05:59:05.094Z,1.33
2022-07-31T06:01:31.775Z,1.58
2022-07-31T06:03:58.533Z,2.00
2022-07-31T06:06:25.011Z,2.10
2022-07-31T06:08:51.586Z,1.65
2022-07-31T06:11:18.058Z,1.70
2022-07-31T06:13:44.660Z,1.25
2022-07-31T06:16:14.866Z,1.35
2022-07-31T06:18:42.205Z,1.60
2022-07-31T06:21:08.759Z,1.55
2022-07-31T06:23:35.258Z,1.55
2022-07-31T06:26:01.949Z,1.17
2022-07-31T06:28:47.599Z,1.50
2022-07-31T06:31:20.211Z,1.42
2022-07-31T06:33:48.379Z,1.48
2022-07-31T06:36:16.434Z,1.40
2022-07-31T06:38:42.955Z,1.42
2022-07-31T06:41:09.591Z,1.25
2022-07-31T06:43:36.046Z,1.42
2022-07-31T06:46:02.525Z,1.38
2022-07-31T06:48:29.001Z,1.23
2022-07-31T06:51:14.519Z,1.52
2022-07-31T06:53:42.186Z,1.42
2022-07-31T06:56:08.641Z,1.13
2022-07-31T06:58:35.233Z,1.10
2022-07-31T07:01:02.149Z,1.48
2022-07-31T07:03:29.019Z,1.55
2022-07-31T07:05:55.507Z,1.00
2022-07-31T07:08:22.183Z,1.35
2022-07-31T07:10:48.660Z,1.98
2022-07-31T07:13:15.131Z,1.20
2022-07-31T07:15:41.651Z,1.50
2022-07-31T07:18:08.104Z,1.50
2022-07-31T07:20:34.489Z,2.10
2022-07-31T07:23:00.911Z,1.55
2022-07-31T07:25:27.421Z,1.20
2022-07-31T07:27:54.070Z,1.45
2022-07-31T07:30:20.523Z,1.48
2022-07-31T07:32:47.019Z,1.60
2022-07-31T07:35:13.510Z,1.23
2022-07-31T07:37:40.787Z,1.50
2022-07-31T07:40:08.949Z,1.70
2022-07-31T07:42:35.489Z,1.40
2022-07-31T07:45:03.381Z,1.73
2022-07-31T07:48:05.294Z,1.60
2022-07-31T07:50:21.327Z,1.27
2022-07-31T07:52:47.962Z,1.55
2022-07-31T07:55:14.651Z,1.60
2022-07-31T07:57:44.994Z,1.58
2022-07-31T08:00:12.603Z,1.73
2022-07-31T08:02:39.416Z,1.67
2022-07-31T08:05:07.029Z,1.55
2022-07-31T08:07:42.061Z,1.30
2022-07-31T08:10:09.828Z,1.52
2022-07-31T08:12:37.361Z,1.63
2022-07-31T08:15:05.078Z,1.40
2022-07-31T08:17:31.528Z,1.55
2022-07-31T08:19:58.480Z,1.40
2022-07-31T08:22:24.924Z,1.50
2022-07-31T08:24:51.798Z,1.55
2022-07-31T08:27:39.534Z,1.58
2022-07-31T08:30:09.297Z,1.33
2022-07-31T08:32:36.432Z,1.23
2022-07-31T08:35:03.099Z,1.75
2022-07-31T08:37:52.179Z,1.42
2022-07-31T08:40:18.734Z,1.80
2022-07-31T08:42:46.462Z,1.55
2022-07-31T08:45:13.902Z,1.50
2022-07-31T08:47:41.750Z,1.80
2022-07-31T08:50:12.144Z,1.30
2022-07-31T08:52:43.148Z,1.70
2022-07-31T08:55:09.854Z,1.58
2022-07-31T08:57:36.976Z,1.70
2022-07-31T09:00:13.040Z,1.48
2022-07-31T09:02:40.509Z,1.23
2022-07-31T09:05:07.395Z,1.27
2022-07-31T09:07:34.596Z,1.48
2022-07-31T09:10:02.513Z,1.10
2022-07-31T09:12:34.458Z,1.63
2022-07-31T09:15:01.589Z,1.45
2022-07-31T09:17:51.898Z,1.33
2022-07-31T09:20:22.921Z,2.60
2022-07-31T09:23:03.127Z,1.30
2022-07-31T09:25:29.909Z,1.50
2022-07-31T09:28:01.612Z,1.13
2022-07-31T09:30:28.319Z,1.58
2022-07-31T09:32:54.985Z,1.58
2022-07-31T09:35:21.438Z,1.70
2022-07-31T09:37:48.339Z,1.60
2022-07-31T09:40:15.129Z,1.58
2022-07-31T09:42:55.492Z,1.30
2022-07-31T09:45:23.597Z,1.40
2022-07-31T09:48:08.143Z,1.40
2022-07-31T09:50:34.831Z,1.48
2022-07-31T09:53:01.527Z,1.35
2022-07-31T09:55:28.646Z,1.27
2022-07-31T09:57:58.111Z,1.60
2022-07-31T10:00:26.840Z,1.20
2022-07-31T10:02:55.580Z,1.50
2022-07-31T10:05:24.573Z,1.30
2022-07-31T10:07:51.931Z,1.52
2022-07-31T10:10:19.023Z,1.50
2022-07-31T10:12:50.343Z,1.42
2022-07-31T10:15:17.767Z,1.23
2022-07-31T10:17:46.260Z,1.10
2022-07-31T10:20:17.605Z,1.38
2022-07-31T10:22:47.440Z,1.40
2022-07-31T10:25:24.715Z,1.70
2022-07-31T10:27:53.464Z,1.38
2022-07-31T10:30:23.752Z,1.23
2022-07-31T10:32:54.066Z,1.50
2022-07-31T10:35:22.608Z,1.42
2022-07-31T10:37:55.102Z,1.25
2022-07-31T10:40:39.522Z,1.48
2022-07-31T10:43:20.376Z,1.25
2022-07-31T10:45:51.777Z,1.52
2022-07-31T10:48:18.613Z,1.38
2022-07-31T10:50:46.124Z,1.17
2022-07-31T10:53:15.403Z,1.70
2022-07-31T10:55:43.020Z,1.60
2022-07-31T10:58:19.527Z,1.40
2022-07-31T11:00:46.005Z,1.48
2022-07-31T11:03:20.235Z,1.77
2022-07-31T11:06:01.485Z,1.27
2022-07-31T11:08:29.188Z,1.30
2022-07-31T11:11:00.814Z,1.42
2022-07-31T11:13:33.524Z,1.83
2022-07-31T11:16:05.171Z,1.70
2022-07-31T11:18:34.452Z,1.75
2022-07-31T11:21:17.797Z,1.75
2022-07-31T11:24:02.012Z,2.35
2022-07-31T11:26:33.258Z,1.40
2022-07-31T11:30:01.342Z,1.30
2022-07-31T11:32:01.702Z,1.60
2022-07-31T11:34:28.177Z,1.35
2022-07-31T11:36:54.703Z,1.30
2022-07-31T11:39:28.375Z,1.55
2022-07-31T11:42:04.893Z,1.65
2022-07-31T11:44:34.672Z,1.55
2022-07-31T11:47:01.303Z,1.77
2022-07-31T11:49:41.681Z,1.73
2022-07-31T11:52:31.090Z,1.38
2022-07-31T11:55:12.264Z,1.58
2022-07-31T11:57:51.326Z,1.58
2022-07-31T12:00:23.241Z,1.42
2022-07-31T12:02:56.216Z,1.25
2022-07-31T12:05:38.108Z,1.45
2022-07-31T12:08:06.538Z,1.38
2022-07-31T12:10:33.280Z,1.45
2022-07-31T12:12:59.827Z,1.60
2022-07-31T12:15:26.291Z,1.48
2022-07-31T12:18:00.933Z,1.83
2022-07-31T12:20:35.597Z,1.30
2022-07-31T12:23:04.689Z,1.60
2022-07-31T12:25:42.470Z,1.38
2022-07-31T12:28:09.897Z,1.20
2022-07-31T12:30:36.446Z,1.30
2022-07-31T12:33:07.547Z,1.15
2022-07-31T12:35:56.408Z,1.17
2022-07-31T12:38:41.074Z,0.80
2022-07-31T12:41:12.130Z,1.67
2022-07-31T12:43:38.845Z,1.38
2022-07-31T12:46:16.574Z,1.10
2022-07-31T12:48:46.120Z,1.05
2022-07-31T12:51:13.215Z,1.00
2022-07-31T12:53:39.708Z,0.93
2022-07-31T12:56:11.391Z,1.20
2022-07-31T12:58:37.873Z,0.80
2022-07-31T13:01:04.344Z,1.10
2022-07-31T13:03:38.876Z,1.33
2022-07-31T13:06:13.470Z,1.10
2022-07-31T13:08:40.036Z,1.17
2022-07-31T13:11:06.552Z,1.08
2022-07-31T13:13:33.032Z,1.20
2022-07-31T13:15:59.522Z,1.00
2022-07-31T13:18:25.988Z,1.10
2022-07-31T13:20:52.438Z,1.30
2022-07-31T13:23:18.837Z,1.20
2022-07-31T13:25:45.223Z,1.00
2022-07-31T13:28:11.670Z,1.00
2022-07-31T13:30:38.136Z,1.42
2022-07-31T13:33:04.592Z,1.40
2022-07-31T13:35:32.206Z,1.02
2022-07-31T13:37:58.677Z,1.20
2022-07-31T13:40:44.435Z,1.50
2022-07-31T13:43:11.357Z,1.27
2022-07-31T13:45:37.833Z,1.15
2022-07-31T13:48:08.893Z,1.10
2022-07-31T13:50:37.698Z,1.17
2022-07-31T13:53:04.952Z,1.10
2022-07-31T13:55:31.978Z,0.85
2022-07-31T13:57:59.856Z,1.10
2022-07-31T14:00:29.208Z,0.95
2022-07-31T14:02:56.996Z,1.02
2022-07-31T14:05:26.466Z,1.20
2022-07-31T14:07:54.765Z,1.00
2022-07-31T14:10:22.157Z,1.23
2022-07-31T14:12:48.847Z,1.00
2022-07-31T14:15:17.729Z,0.80
2022-07-31T14:17:44.200Z,0.90
2022-07-31T14:20:11.948Z,1.30
2022-07-31T14:22:38.442Z,1.25
2022-07-31T14:25:05.384Z,1.00
2022-07-31T14:27:32.267Z,1.13
2022-07-31T14:29:58.800Z,0.90
2022-07-31T14:32:25.326Z,0.60
2022-07-31T14:34:52.397Z,0.82
2022-07-31T14:37:20.009Z,0.90
2022-07-31T14:39:46.728Z,0.80
2022-07-31T14:42:13.339Z,0.80
2022-07-31T14:44:41.991Z,0.60
2022-07-31T14:47:10.332Z,0.68
2022-07-31T14:50:07.836Z,0.90
2022-07-31T14:52:23.850Z,0.70
2022-07-31T14:54:50.364Z,0.77
2022-07-31T14:57:20.168Z,0.68
2022-07-31T14:59:50.132Z,1.27
2022-07-31T15:02:21.837Z,0.73
2022-07-31T15:04:49.414Z,0.80
2022-07-31T15:10:04.588Z,0.50
2022-07-31T15:12:32.330Z,0.57
2022-07-31T15:14:59.207Z,0.75
2022-07-31T15:17:25.652Z,0.70
2022-07-31T15:19:52.329Z,0.70
2022-07-31T15:22:19.406Z,1.08
2022-07-31T15:24:48.600Z,0.90
2022-07-31T15:27:16.226Z,0.77
2022-07-31T15:30:05.822Z,0.75
2022-07-31T15:32:29.664Z,0.85
2022-07-31T15:34:56.112Z,0.95
2022-07-31T15:37:22.581Z,0.68
2022-07-31T15:40:02.000Z,0.73
2022-07-31T15:42:33.283Z,0.80
2022-07-31T15:44:59.695Z,0.75
2022-07-31T15:47:26.187Z,0.50
2022-07-31T15:49:52.683Z,0.60
2022-07-31T15:52:19.651Z,0.50
2022-07-31T15:54:46.977Z,0.70
2022-07-31T15:57:13.697Z,1.23
2022-07-31T15:59:41.453Z,0.43
2022-07-31T16:02:07.940Z,0.70
2022-07-31T16:04:34.971Z,0.52
2022-07-31T16:08:31.721Z,0.90
2022-07-31T16:10:03.845Z,0.77
2022-07-31T16:12:35.528Z,0.95
2022-07-31T16:15:02.593Z,1.08
2022-07-31T16:17:40.591Z,0.95
2022-07-31T16:20:09.868Z,0.93
2022-07-31T16:22:37.372Z,1.00
2022-07-31T16:25:05.407Z,0.63
2022-07-31T16:27:31.956Z,0.80
2022-07-31T16:30:01.483Z,0.98
2022-07-31T16:32:28.867Z,0.80
2022-07-31T16:34:59.992Z,0.60
2022-07-31T16:37:49.918Z,0.82
2022-07-31T16:40:27.049Z,0.70
2022-07-31T16:43:50.247Z,0.70
2022-07-31T16:45:52.280Z,0.82
2022-07-31T16:48:18.885Z,0.75
2022-07-31T16:50:47.425Z,1.30
2022-07-31T16:54:10.601Z,0.75
2022-07-31T16:56:06.580Z,0.47
2022-07-31T16:58:33.041Z,1.10
2022-07-31T17:00:59.521Z,0.80
2022-07-31T17:04:00.132Z,0.50
2022-07-31T17:06:12.457Z,0.75
2022-07-31T17:08:38.974Z,0.60
2022-07-31T17:11:05.558Z,0.70
2022-07-31T17:13:31.995Z,0.60
2022-07-31T17:15:58.544Z,0.68
2022-07-31T17:18:25.974Z,0.50
2022-07-31T17:20:55.773Z,0.60
2022-07-31T17:23:42.987Z,0.60
2022-07-31T17:26:21.359Z,0.70
2022-07-31T17:28:50.553Z,0.45
2022-07-31T17:31:18.382Z,0.50
2022-07-31T17:33:58.524Z,0.50
2022-07-31T17:36:29.103Z,0.40
2022-07-31T17:38:56.880Z,0.80
2022-07-31T17:41:25.410Z,0.50
2022-07-31T17:43:53.684Z,1.58
2022-07-31T17:46:22.056Z,0.60
2022-07-31T17:48:56.454Z,0.77
2022-07-31T17:51:22.915Z,0.50
2022-07-31T17:53:55.028Z,0.68
2022-07-31T17:56:26.452Z,0.70
2022-07-31T17:58:52.954Z,0.65
2022-07-31T18:01:19.485Z,0.80
2022-07-31T18:03:45.963Z,0.57
2022-07-31T18:06:12.444Z,0.85
2022-07-31T18:08:38.928Z,1.10
2022-07-31T18:11:06.550Z,0.98
2022-07-31T18:13:47.744Z,1.15
2022-07-31T18:16:16.428Z,0.90
2022-07-31T18:18:43.106Z,0.40
2022-07-31T18:21:09.703Z,0.45
2022-07-31T18:23:36.132Z,0.77
2022-07-31T18:26:03.862Z,0.40
2022-07-31T18:28:34.074Z,0.60
2022-07-31T18:31:03.416Z,1.00
2022-07-31T18:33:29.885Z,0.77
2022-07-31T18:35:56.344Z,0.75
2022-07-31T18:38:22.974Z,0.60
2022-07-31T18:40:49.430Z,0.50
2022-07-31T18:43:15.903Z,0.70
2022-07-31T18:45:43.037Z,0.70
2022-07-31T18:48:09.490Z,0.60
2022-07-31T18:50:59.863Z,0.50
2022-07-31T18:53:22.416Z,0.70
2022-07-31T18:55:48.899Z,0.70
2022-07-31T18:58:15.359Z,0.70
2022-07-31T19:00:41.948Z,0.50
2022-07-31T19:03:09.806Z,0.52
2022-07-31T19:05:36.743Z,0.68
2022-07-31T19:08:05.078Z,0.60
2022-07-31T19:10:31.716Z,0.63
2022-07-31T19:12:59.281Z,0.70
2022-07-31T19:15:25.819Z,0.68
2022-07-31T19:17:52.461Z,0.50
2022-07-31T19:20:56.543Z,0.80
2022-07-31T19:23:12.495Z,0.65
2022-07-31T19:26:03.052Z,0.95
2022-07-31T19:28:27.180Z,0.55
2022-07-31T19:30:54.279Z,0.70
2022-07-31T19:33:20.944Z,0.60
2022-07-31T19:35:56.975Z,1.05
2022-07-31T19:38:27.721Z,0.90
2022-07-31T19:40:54.537Z,0.75
2022-07-31T19:43:21.406Z,0.85
2022-07-31T19:46:02.640Z,0.82
2022-07-31T19:48:36.441Z,0.60
2022-07-31T19:51:03.449Z,0.82
2022-07-31T19:53:30.263Z,0.50
2022-07-31T19:55:57.128Z,0.75
2022-07-31T19:58:23.700Z,0.55
2022-07-31T20:00:50.197Z,0.60
2022-07-31T20:03:16.965Z,0.90
2022-07-31T20:05:43.572Z,0.63
2022-07-31T20:08:10.434Z,0.88
2022-07-31T20:10:36.918Z,1.52
2022-07-31T20:13:03.504Z,0.95
2022-07-31T20:15:50.606Z,0.95
2022-07-31T20:18:26.650Z,1.00
2022-07-31T20:20:59.732Z,1.10
2022-07-31T20:23:26.992Z,1.08
2022-07-31T20:25:54.080Z,0.70
2022-07-31T20:28:20.897Z,0.70
2022-07-31T20:30:47.339Z,0.70
2022-07-31T20:33:13.852Z,0.60
2022-07-31T20:35:49.083Z,0.80
2022-07-31T20:38:20.920Z,0.98
2022-07-31T20:40:53.420Z,1.33
2022-07-31T20:43:27.246Z,1.05
2022-07-31T20:45:58.590Z,0.70
2022-07-31T20:48:36.721Z,0.60
2022-07-31T20:51:04.257Z,0.77
2022-07-31T20:53:31.349Z,0.68
2022-07-31T20:55:58.146Z,0.63
2022-07-31T20:58:26.437Z,0.93
2022-07-31T21:00:53.619Z,0.85
2022-07-31T21:03:20.389Z,1.00
2022-07-31T21:05:47.151Z,0.75
2022-07-31T21:08:13.698Z,1.05
2022-07-31T21:10:40.529Z,0.88
2022-07-31T21:13:07.064Z,0.70
2022-07-31T21:15:42.414Z,0.80
2022-07-31T21:18:14.919Z,1.13
2022-07-31T21:20:51.643Z,0.70
2022-07-31T21:23:24.209Z,0.93
2022-07-31T21:25:55.380Z,0.70
2022-07-31T21:28:22.539Z,0.82
2022-07-31T21:30:49.592Z,0.50
2022-07-31T21:33:17.950Z,0.55
2022-07-31T21:35:44.926Z,1.25
2022-07-31T21:38:12.162Z,1.58
2022-07-31T21:40:39.816Z,0.88
2022-07-31T21:43:06.632Z,1.15
2022-07-31T21:45:54.744Z,0.63
2022-07-31T21:48:21.877Z,0.85
2022-07-31T21:50:48.491Z,0.95
2022-07-31T21:53:14.963Z,0.82
2022-07-31T21:55:41.553Z,1.23
2022-07-31T21:58:09.094Z,1.15
2022-07-31T22:00:35.861Z,0.82
2022-07-31T22:03:03.430Z,0.80
2022-07-31T22:05:49.093Z,1.33
2022-07-31T22:08:15.682Z,0.90
2022-07-31T22:10:42.220Z,0.88
2022-07-31T22:13:08.818Z,0.57
2022-07-31T22:15:51.407Z,1.13
2022-07-31T22:18:22.042Z,0.75
2022-07-31T22:20:48.963Z,0.80
2022-07-31T22:23:15.640Z,0.50
2022-07-31T22:25:42.802Z,0.98
2022-07-31T22:28:09.395Z,0.70
2022-07-31T22:30:36.085Z,0.65
2022-07-31T22:33:04.877Z,1.52
2022-07-31T22:35:32.416Z,0.60
2022-07-31T22:37:59.133Z,0.90
2022-07-31T22:40:25.705Z,0.85
2022-07-31T22:42:52.761Z,1.10
2022-07-31T22:45:23.957Z,0.95
2022-07-31T22:47:50.974Z,0.90
2022-07-31T22:50:17.615Z,1.00
2022-07-31T22:52:44.373Z,0.88
2022-07-31T22:55:11.673Z,1.00
2022-07-31T22:57:40.754Z,0.93
2022-07-31T23:00:09.051Z,0.93
2022-07-31T23:02:35.814Z,1.00
2022-07-31T23:05:02.593Z,0.85
2022-07-31T23:07:29.082Z,0.65
2022-07-31T23:09:55.591Z,0.75
2022-07-31T23:12:22.018Z,0.93
2022-07-31T23:14:55.555Z,0.60
2022-07-31T23:17:23.773Z,0.90
2022-07-31T23:19:54.347Z,0.80
2022-07-31T23:22:33.431Z,0.77
2022-07-31T23:25:07.466Z,1.00
2022-07-31T23:27:35.104Z,0.88
2022-07-31T23:30:02.473Z,0.80
2022-07-31T23:32:30.131Z,0.98
2022-07-31T23:34:57.785Z,1.02
2022-07-31T23:37:24.463Z,1.00
2022-07-31T23:39:51.605Z,0.80
2022-07-31T23:42:37.105Z,0.80
2022-07-31T23:45:11.340Z,0.82
2022-07-31T23:47:45.874Z,0.68
2022-07-31T23:50:13.474Z,0.98
2022-07-31T23:52:39.947Z,0.77
2022-07-31T23:55:06.791Z,1.20
2022-07-31T23:57:34.388Z,1.00
